Airfield :
LOGIN :

Register | Disclaimer

   EN    FR    IT 

 










Legend :    VFR   Marginal VFR   IFR   Intensive IFR   Very Intensive IFR
Visi :
Ceiling :
>= 8 km
>= 3000ft
5 to 8 km
1000 to 3000 ft
1500m to 5 km
500 to 1000 ft
800 to 1500m
200 to 500 ft
< 800m
< 200 ft
Symbols :   Thunderstorms  Fog  Heavy snow  Heavy precipitations  Wind > 20 kt
SIGMETs :     Misc.  Thunderstorms  Icing  Turbulence  Mountain Waves  Volcanic Ashes







- Airport Elevation : 156 ft
- IATA code : LCC


LIBN - Lecce Galatine (military)

CURRENT METAR :
  • 261155Z 01016KT 9999 SCT040 21/07 Q1013 RMK BKN SCT090 VIS MIN 9999 WIND THR14 35014KT WIND THR32 01017KT BLU

EXPIRED METARs :
  • 261055Z 36016KT 9999 FEW025TCU SCT045 20/08 Q1013 RMK BKN VIS MIN 9999 WIND THR14 36015KT WIND THR32 36016KT BLU
  • 260955Z 36015KT 9999 FEW025TCU SCT040 20/10 Q1013 RMK BKN VIS MIN 9999 WIND THR14 35014KT WIND THR32 36015KT BLU

TAF TAF LIBN
Valid from the 26 at 12:00 until the 26 at 21:00 UTC


261100Z 2612/2621 36015KT 9999 SCT040
TEMPO 2612/2615 36017G27KT FEW025CB SCT040
No reported NOTAMs for that airfield.



MET'MAP, your aeronautical weather chart ! - Copyright ORBIFLY December 2007 - Disclaimer

ORBIFLY MET'MAP TEAM :

Programming & Development : Alexandra Zaïnal
Concept & Development : Baudouin d'Aumeries
Co-Development & Prog : Marc-Olivier Méhu
Technical & hardware support : Manuel Goepfert

Contact : metmap@orbifly.com




SOURCES & CREDITS :

   NOAA